Time;durP1;ratioP1;P1;durP2;ratioP2;P2;SDS_P1;SDS_P2;PMS_P1;PMS_P2;Temp;Humidity;BMP_temperature;BMP_pressure;BME280_temperature;BME280_humidity;BME280_pressure;Samples;Min_cycle;Max_cycle;Signal;HPM_P1;HPM_P2
2022/05/16 00:02:09;;;;;;;8.65;2.67;;;;;;;15.24;48.62;101903.47;5082065;28;20460;-46
2022/05/16 00:04:39;;;;;;;6.30;2.50;;;;;;;15.23;48.54;101909.72;5079986;28;20032;-48
2022/05/16 00:07:05;;;;;;;8.63;3.13;;;;;;;15.22;48.51;101908.00;5079051;28;20035;-46
2022/05/16 00:09:30;;;;;;;8.13;3.00;;;;;;;15.17;48.46;101915.41;5076175;28;20032;-47
2022/05/16 00:11:56;;;;;;;7.72;3.00;;;;;;;15.18;48.75;101921.53;5076818;28;20035;-53
2022/05/16 00:14:21;;;;;;;7.22;2.60;;;;;;;15.19;48.78;101925.91;5083006;28;20106;-47
2022/05/16 00:16:47;;;;;;;6.80;2.67;;;;;;;15.17;48.72;101925.13;5084014;28;20097;-49
2022/05/16 00:19:12;;;;;;;5.45;3.20;;;;;;;15.16;48.75;101928.72;5084952;28;20035;-50
2022/05/16 00:21:38;;;;;;;6.68;2.70;;;;;;;15.16;48.83;101923.41;5081423;28;20032;-47
2022/05/16 00:24:04;;;;;;;6.28;2.70;;;;;;;15.15;48.90;101927.88;5088298;28;20032;-50
2022/05/16 00:26:29;;;;;;;6.20;2.70;;;;;;;15.12;48.98;101933.34;5081186;28;20028;-49
2022/05/16 00:28:55;;;;;;;7.65;2.90;;;;;;;15.13;48.86;101929.78;5080989;28;20042;-50
2022/05/16 00:31:20;;;;;;;9.05;2.75;;;;;;;15.14;48.98;101927.97;5083363;28;20127;-48
2022/05/16 00:33:45;;;;;;;;;;;;;;;15.09;48.76;101922.94;5081806;28;20378;-48
2022/05/16 00:36:11;;;;;;;;;;;;;;;15.03;48.51;101918.84;5086065;28;20010;-46
2022/05/16 00:38:36;;;;;;;;;;;;;;;14.98;48.55;101920.91;5086644;28;19927;-44
2022/05/16 00:41:03;;;;;;;;;;;;;;;14.93;48.54;101929.13;5086012;28;20296;-48
2022/05/16 00:43:43;;;;;;;;;;;;;;;14.90;48.55;101931.09;5088757;28;20322;-46
2022/05/16 00:46:08;;;;;;;;;;;;;;;14.85;48.49;101923.41;5082975;28;19924;-50
2022/05/16 00:48:33;;;;;;;;;;;;;;;14.84;48.15;101924.34;5086135;28;19926;-45
2022/05/16 00:51:00;;;;;;;;;;;;;;;14.81;48.32;101934.28;5087221;28;19928;-45
2022/05/16 00:53:25;;;;;;;;;;;;;;;14.78;48.27;101927.34;5085362;28;19920;-45
2022/05/16 00:55:50;;;;;;;;;;;;;;;14.73;48.36;101926.78;5085297;28;19924;-44
2022/05/16 00:58:17;;;;;;;;;;;;;;;14.72;48.16;101933.00;5087446;28;19928;-47
2022/05/16 01:00:43;;;;;;;;;;;;;;;14.69;48.14;101931.34;5083664;28;19924;-48
2022/05/16 01:05:54;;;;;;;;;;;;;;;14.62;48.29;101928.16;5075285;28;19962;-45
2022/05/16 01:08:24;;;;;;;;;;;;;;;14.55;48.32;101934.75;5088982;28;20031;-44
2022/05/16 01:10:53;;;;;;;;;;;;;;;14.52;48.42;101931.44;5087466;28;19923;-45
2022/05/16 01:13:22;;;;;;;;;;;;;;;14.48;48.24;101923.66;5092373;28;19939;-46
2022/05/16 01:15:48;;;;;;;;;;;;;;;14.45;48.42;101922.94;5088264;28;20188;-44
2022/05/16 01:18:15;;;;;;;;;;;;;;;14.40;48.37;101930.31;5090336;28;19928;-46
2022/05/16 01:20:49;;;;;;;;;;;;;;;14.37;48.54;101926.03;5093505;28;20315;-49
2022/05/16 01:23:16;;;;;;;;;;;;;;;14.35;48.56;101919.13;5085472;28;19931;-51
2022/05/16 01:25:41;;;;;;;;;;;;;;;14.33;48.42;101929.81;5093987;28;19916;-45
2022/05/16 01:28:07;;;;;;;;;;;;;;;14.32;48.42;101928.09;5085164;28;19920;-48
2022/05/16 01:30:34;;;;;;;;;;;;;;;14.29;48.45;101934.38;5081971;28;19929;-47
2022/05/16 01:32:59;;;;;;;;;;;;;;;14.25;48.44;101932.00;5087046;28;20392;-49
2022/05/16 01:35:27;;;;;;;;;;;;;;;14.20;48.52;101929.59;5085102;28;19924;-44
2022/05/16 01:40:37;;;;;;;;;;;;;;;14.15;48.49;101929.00;5089260;28;20543;-44
2022/05/16 01:43:02;;;;;;;;;;;;;;;14.15;48.51;101931.63;5088012;28;19916;-45
2022/05/16 01:45:27;;;;;;;;;;;;;;;14.12;48.57;101923.88;5089749;28;20418;-46
2022/05/16 01:47:53;;;;;;;;;;;;;;;14.10;48.78;101931.06;5085017;28;19924;-45
2022/05/16 01:50:18;;;;;;;;;;;;;;;14.06;48.58;101934.78;5084144;28;19928;-44
2022/05/16 01:52:43;;;;;;;;;;;;;;;14.05;48.64;101925.13;5090334;28;20349;-44
2022/05/16 01:55:11;;;;;;;;;;;;;;;14.03;48.81;101930.53;5082088;28;19916;-44
2022/05/16 01:57:37;;;;;;;;;;;;;;;13.99;48.76;101918.38;5080746;28;19923;-47
2022/05/16 02:00:03;;;;;;;;;;;;;;;13.95;48.77;101920.34;5080958;28;19920;-47
2022/05/16 02:02:28;;;;;;;;;;;;;;;13.90;49.03;101917.09;5092275;28;19920;-44
2022/05/16 02:04:53;;;;;;;;;;;;;;;13.86;48.94;101912.88;5084234;28;19928;-44
2022/05/16 02:07:18;;;;;;;;;;;;;;;13.82;49.08;101911.34;5087269;28;20305;-48
2022/05/16 02:09:45;;;;;;;;;;;;;;;13.83;49.04;101915.72;5080914;28;19943;-47
2022/05/16 02:12:10;;;;;;;;;;;;;;;13.84;48.98;101912.13;5087725;28;19927;-45
2022/05/16 02:14:36;;;;;;;;;;;;;;;13.85;48.71;101924.41;5092053;28;19928;-48
2022/05/16 02:17:02;;;;;;;;;;;;;;;13.82;48.93;101916.66;5084371;28;19919;-45
2022/05/16 02:19:27;;;;;;;;;;;;;;;13.78;48.83;101907.16;5081968;28;20406;-44
2022/05/16 02:24:39;;;;;;;;;;;;;;;13.74;48.82;101902.94;5082672;28;19927;-46
2022/05/16 02:27:12;;;;;;;;;;;;;;;13.69;48.99;101906.69;5085513;28;19924;-48
2022/05/16 02:29:37;;;;;;;;;;;;;;;13.66;49.12;101909.53;5089447;28;20100;-47
2022/05/16 02:32:04;;;;;;;;;;;;;;;13.64;48.93;101902.56;5084591;28;20365;-45
2022/05/16 02:34:29;;;;;;;;;;;;;;;13.59;49.07;101905.47;5087391;28;19962;-47
2022/05/16 02:36:55;;;;;;;;;;;;;;;13.57;49.01;101902.03;5085981;28;20006;-48
2022/05/16 02:39:21;;;;;;;;;;;;;;;13.57;48.93;101894.09;5084572;28;19967;-50
2022/05/16 02:41:46;;;;;;;;;;;;;;;13.57;49.03;101899.41;5084801;28;19925;-46
2022/05/16 02:44:12;;;;;;;;;;;;;;;13.56;49.04;101895.03;5083854;28;19916;-50
2022/05/16 02:46:37;;;;;;;;;;;;;;;13.54;49.33;101888.97;5082338;28;19942;-47
2022/05/16 02:49:03;;;;;;;;;;;;;;;13.52;49.17;101896.16;5083974;28;19920;-50
2022/05/16 02:51:29;;;;;;;;;;;;;;;13.51;49.07;101886.50;5087101;28;19923;-50
2022/05/16 02:53:54;;;;;;;;;;;;;;;13.50;49.47;101892.72;5088161;28;19920;-47
2022/05/16 02:56:19;;;;;;;;;;;;;;;13.48;49.33;101886.66;5092760;28;19923;-47
2022/05/16 02:58:45;;;;;;;;;;;;;;;13.49;49.03;101885.72;5088103;28;19964;-47
2022/05/16 03:01:11;;;;;;;;;;;;;;;13.49;49.17;101891.03;5082443;28;20014;-47
2022/05/16 03:03:36;;;;;;;;;;;;;;;13.48;49.32;101889.31;5083443;28;19930;-49
2022/05/16 03:06:01;;;;;;;;;;;;;;;13.46;49.28;101885.88;5090416;28;19927;-48
2022/05/16 03:08:27;;;;;;;;;;;;;;;13.40;49.40;101881.78;5090846;28;20329;-50
2022/05/16 03:10:52;;;;;;;;;;;;;;;13.38;49.31;101883.59;5083943;28;20515;-47
2022/05/16 03:13:17;;;;;;;;;;;;;;;13.36;49.34;101878.41;5087987;28;19924;-48
2022/05/16 03:15:42;;;;;;;;;;;;;;;13.34;49.63;101880.28;5093720;28;20341;-47
2022/05/16 03:18:08;;;;;;;;;;;;;;;13.35;49.48;101874.06;5081688;28;19928;-44
2022/05/16 03:20:33;;;;;;;;;;;;;;;13.35;49.57;101876.69;5084283;28;20444;-48
2022/05/16 03:22:58;;;;;;;;;;;;;;;13.37;49.32;101876.59;5083808;28;20361;-47
2022/05/16 03:25:24;;;;;;;;;;;;;;;13.36;49.57;101881.06;5079332;28;19927;-47
2022/05/16 03:27:49;;;;;;;;;;;;;;;13.37;49.42;101884.53;5085134;28;19920;-45
2022/05/16 03:30:14;;;;;;;;;;;;;;;13.37;49.63;101885.41;5091849;28;20153;-47
2022/05/16 03:32:40;;;;;;;;;;;;;;;13.37;49.53;101880.13;5086845;28;19995;-49
2022/05/16 03:35:06;;;;;;;;;;;;;;;13.37;49.63;101884.53;5091893;28;19916;-45
2022/05/16 03:37:31;;;;;;;;;;;;;;;13.33;49.77;101886.50;5085649;28;19916;-45
2022/05/16 03:42:40;;;;;;;;;;;;;;;13.32;49.79;101881.25;5082773;28;19982;-47
2022/05/16 03:45:05;;;;;;;;;;;;;;;13.31;49.92;101876.94;5085679;28;19943;-46
2022/05/16 03:47:31;;;;;;;;;;;;;;;13.24;50.03;101876.38;5082505;28;19924;-45
2022/05/16 03:49:56;;;;;;;;;;;;;;;13.22;50.16;101889.69;5086623;28;19916;-48
2022/05/16 03:52:21;;;;;;;;;;;;;;;13.19;50.28;101888.97;5085595;28;19927;-44
2022/05/16 03:54:47;;;;;;;;;;;;;;;13.19;50.48;101888.97;5082182;28;19920;-48
2022/05/16 03:57:12;;;;;;;;;;;;;;;13.18;50.49;101882.00;5092022;28;19920;-48
2022/05/16 03:59:37;;;;;;;;;;;;;;;13.16;50.62;101881.19;5085756;28;19947;-47
2022/05/16 04:02:03;;;;;;;;;;;;;;;13.13;50.55;101878.72;5079185;28;19927;-47
2022/05/16 04:04:29;;;;;;;;;;;;;;;13.14;50.59;101872.50;5093978;28;20315;-47
2022/05/16 04:06:55;;;;;;;;;;;;;;;13.16;50.63;101870.63;5085379;28;19924;-45
2022/05/16 04:09:20;;;;;;;;;;;;;;;13.20;50.88;101866.91;5085211;28;19924;-44
2022/05/16 04:11:45;;;;;;;;;;;;;;;13.22;50.89;101868.53;5090143;28;19924;-46
2022/05/16 04:14:11;;;;;;;;;;;;;;;13.27;50.82;101876.22;5078826;28;20018;-44
2022/05/16 04:16:37;;;;;;;;;;;;;;;13.32;50.83;101873.34;5085811;28;19920;-45
2022/05/16 04:19:03;;;;;;;;;;;;;;;13.31;50.75;101867.22;5081238;28;19931;-47
2022/05/16 04:21:28;;;;;;;;;;;;;;;13.33;50.91;101869.75;5078952;28;19919;-44
2022/05/16 04:23:54;;;;;;;;;;;;;;;13.34;50.99;101877.63;5089971;28;20033;-44
2022/05/16 04:26:19;;;;;;;;;;;;;;;13.35;50.93;101874.06;5084721;28;20305;-44
2022/05/16 04:28:44;;;;;;;;;;;;;;;13.37;50.85;101881.91;5082390;28;19946;-44
2022/05/16 04:31:10;;;;;;;;;;;;;;;13.38;50.90;101879.19;5084162;28;19959;-45
2022/05/16 04:33:35;;;;;;;;;;;;;;;13.39;51.10;101878.22;5092825;28;19912;-47
2022/05/16 04:36:01;;;;;;;;;;;;;;;13.41;50.92;101873.75;5093211;28;20299;-47
2022/05/16 04:38:26;;;;;;;;;;;;;;;13.44;50.94;101880.69;5090650;28;19995;-47
2022/05/16 04:43:36;;;;;;;;;;;;;;;13.50;50.98;101885.66;5095276;28;19927;-47
2022/05/16 04:46:06;;;;;;;;;;;;;;;13.54;51.08;101888.97;5087270;28;19935;-47
2022/05/16 04:48:31;;;;;;;;;;;;;;;13.59;51.17;101886.13;5084719;28;19920;-47
2022/05/16 04:50:56;;;;;;;;;;;;;;;13.65;51.04;101886.66;5088099;28;19983;-46
2022/05/16 04:53:22;;;;;;;;;;;;;;;13.68;51.10;101881.19;5084110;28;20331;-46
2022/05/16 04:55:47;;;;;;;;;;;;;;;13.74;51.13;101885.31;5090653;28;19973;-49
2022/05/16 04:58:14;;;;;;;;;;;;;;;13.79;50.93;101888.53;5088133;28;19928;-47
2022/05/16 05:00:39;;;;;;;;;;;;;;;13.81;51.11;101888.47;5077761;28;19924;-50
2022/05/16 05:03:04;;;;;;;;;;;;;;;13.85;51.00;101882.06;5071216;28;19925;-47
2022/05/16 05:05:30;;;;;;;;;;;;;;;13.90;51.03;101885.34;5091641;28;19984;-46
2022/05/16 05:07:55;;;;;;;;;;;;;;;13.97;50.95;101886.72;5092223;28;19939;-48
2022/05/16 05:15:58;;;;;;;;;;;;;;;14.21;50.95;101877.53;5093315;28;19949;-47
2022/05/16 05:18:24;;;;;;;;;;;;;;;14.27;51.05;101878.03;5093342;28;19920;-47
2022/05/16 05:20:49;;;;;;;;;;;;;;;14.32;50.98;101886.56;5090305;28;20291;-47
2022/05/16 05:23:14;;;;;;;;;;;;;;;14.38;50.92;101890.66;5089638;28;19958;-47
2022/05/16 05:25:40;;;;;;;;;;;;;;;14.44;50.71;101890.34;5090573;28;20037;-47
2022/05/16 05:28:05;;;;;;;;;;;;;;;14.49;50.86;101892.72;5087006;28;19920;-48
2022/05/16 05:30:32;;;;;;;;;;;;;;;14.54;50.60;101885.38;5092656;28;20287;-49
2022/05/16 05:32:57;;;;;;;;;;;;;;;14.62;50.78;101880.50;5090303;28;19917;-47
2022/05/16 05:35:23;;;;;;;;;;;;;;;14.67;50.55;101877.56;5093345;28;20379;-49
2022/05/16 05:37:48;;;;;;;;;;;;;;;14.72;50.57;101877.38;5092484;28;19920;-48
2022/05/16 05:40:14;;;;;;;;;;;;;;;14.75;50.51;101871.88;5093932;28;19923;-47
2022/05/16 05:42:40;;;;;;;;;;;;;;;14.80;50.61;101879.59;5091728;28;19935;-47
2022/05/16 05:45:06;;;;;;;;;;;;;;;14.84;50.13;101871.34;5091749;28;20053;-47
2022/05/16 05:47:32;;;;;;;;;;;;;;;14.90;50.33;101881.59;5094098;28;19972;-47
2022/05/16 05:49:59;;;;;;;;;;;;;;;14.96;50.08;101874.22;5094346;28;20002;-48
2022/05/16 05:52:28;;;;;;;;;;;;;;;14.98;50.05;101877.66;5092184;28;19924;-47
2022/05/16 05:54:54;;;;;;;;;;;;;;;15.01;49.96;101875.66;5092882;28;20010;-47
2022/05/16 05:57:19;;;;;;;;;;;;;;;15.06;49.79;101875.38;5091313;28;20462;-47
2022/05/16 05:59:44;;;;;;;;;;;;;;;15.11;49.66;101869.84;5083066;28;19962;-48
2022/05/16 06:02:10;;;;;;;;;;;;;;;15.14;49.70;101867.84;5089778;28;20438;-48
2022/05/16 06:04:35;;;;;;;;;;;;;;;15.17;49.60;101865.03;5088448;28;19993;-47
2022/05/16 06:07:01;;;;;;;;;;;;;;;15.22;49.43;101876.19;5090691;28;20061;-47
2022/05/16 06:09:27;;;;;;;;;;;;;;;15.26;49.30;101873.38;5090384;28;19990;-47
2022/05/16 06:11:53;;;;;;;;;;;;;;;15.29;49.32;101878.50;5092048;28;19924;-50
2022/05/16 06:14:18;;;;;;;;;;;;;;;15.31;49.23;101884.56;5091041;28;19920;-47
2022/05/16 06:16:43;;;;;;;;;;;;;;;15.36;49.23;101895.72;5089438;28;19923;-49
2022/05/16 06:19:09;;;;;;;;;;;;;;;15.39;49.34;101882.28;5091050;28;19920;-47
2022/05/16 06:21:34;;;;;;;;;;;;;;;15.45;49.30;101886.38;5090956;28;19923;-47
2022/05/16 06:24:00;;;;;;;;;;;;;;;15.50;49.15;101879.00;5090283;28;19923;-48
2022/05/16 06:26:25;;;;;;;;;;;;;;;15.55;49.07;101871.63;5095708;28;19922;-47
2022/05/16 06:28:50;;;;;;;;;;;;;;;15.59;49.04;101873.13;5094544;28;19916;-47
2022/05/16 06:31:16;;;;;;;;;;;;;;;15.63;48.99;101873.81;5093382;28;20011;-48
2022/05/16 06:33:46;;;;;;;;;;;;;;;15.68;48.96;101882.31;5092472;28;20272;-47
2022/05/16 06:36:12;;;;;;;;;;;;;;;15.72;48.86;101883.84;5096230;28;19932;-47
2022/05/16 06:38:37;;;;;;;;;;;;;;;15.75;48.79;101883.66;5095125;28;19912;-48
2022/05/16 06:41:03;;;;;;;;;;;;;;;15.77;48.77;101881.78;5092274;28;19912;-47
2022/05/16 06:43:30;;;;;;;;;;;;;;;15.81;48.59;101872.66;5089927;28;20007;-47
2022/05/16 06:45:55;;;;;;;;;;;;;;;15.87;48.73;101884.75;5088626;28;19921;-49
2022/05/16 06:48:21;;;;;;;;;;;;;;;15.91;48.55;101875.63;5091286;28;19928;-47
2022/05/16 06:50:48;;;;;;;;;;;;;;;15.98;48.53;101876.97;5090425;28;20002;-49
2022/05/16 06:53:17;;;;;;;;;;;;;;;16.03;48.37;101859.91;5088128;28;20004;-47
2022/05/16 06:55:43;;;;;;;;;;;;;;;16.09;48.39;101880.72;5089532;28;19923;-49
2022/05/16 06:58:08;;;;;;;;;;;;;;;16.12;48.36;101873.41;5091236;28;19924;-46
2022/05/16 07:00:34;;;;;;;;;;;;;;;16.18;48.30;101879.28;5092258;28;19934;-48
2022/05/16 07:02:59;;;;;;;;;;;;;;;16.23;48.17;101877.22;5095158;28;19970;-44
2022/05/16 07:05:24;;;;;;;;;;;;;;;16.28;48.15;101880.41;5090342;28;19917;-46
2022/05/16 07:07:51;;;;;;;;;;;;;;;16.31;48.05;101874.91;5095580;28;20402;-46
2022/05/16 07:10:16;;;;;;;;;;;;;;;16.35;48.20;101868.44;5093191;28;20274;-47
2022/05/16 07:12:42;;;;;;;;;;;;;;;16.39;48.06;101877.94;5088551;28;20429;-45
2022/05/16 07:15:08;;;;;;;;;;;;;;;16.44;47.98;101881.13;5091811;28;20374;-48
2022/05/16 07:17:33;;;;;;;;;;;;;;;16.49;47.73;101879.97;5093843;28;19920;-45
2022/05/16 07:19:58;;;;;;;;;;;;;;;16.54;47.65;101869.91;5088557;28;20300;-48
2022/05/16 07:22:23;;;;;;;;;;;;;;;16.58;47.59;101882.91;5088575;28;19912;-45
2022/05/16 07:24:51;;;;;;;;;;;;;;;16.63;47.52;101873.78;5091671;28;19920;-45
2022/05/16 07:30:01;;;;;;;;;;;;;;;16.75;47.01;101868.50;5090507;28;19973;-49
2022/05/16 07:32:33;;;;;;;;;;;;;;;16.80;46.76;101864.69;5090685;28;19963;-45
2022/05/16 07:35:03;;;;;;;;;;;;;;;16.86;46.51;101865.13;5093296;28;19935;-45
2022/05/16 07:37:29;;;;;;;;;;;;;;;16.90;46.28;101876.41;5093738;28;19916;-47
2022/05/16 07:39:54;;;;;;;;;;;;;;;16.96;46.22;101875.16;5094288;28;19938;-48
2022/05/16 07:42:20;;;;;;;;;;;;;;;16.99;46.03;101880.28;5094378;28;20303;-47
2022/05/16 07:44:47;;;;;;;;;;;;;;;17.01;46.07;101878.38;5091587;28;20003;-48
2022/05/16 07:47:13;;;;;;;;;;;;;;;17.04;45.97;101878.19;5089684;28;19924;-45
2022/05/16 07:49:38;;;;;;;;;;;;;;;17.08;45.90;101878.81;5089513;28;19996;-45
2022/05/16 07:52:04;;;;;;;;;;;;;;;17.08;45.94;101874.38;5097176;28;20318;-49
2022/05/16 07:54:29;;;;;;;;;;;;;;;17.11;45.93;101874.13;5093456;28;19920;-46
2022/05/16 07:56:54;;;;;;;;;;;;;;;17.16;45.86;101876.50;5089209;28;19927;-50
2022/05/16 07:59:20;;;;;;;;;;;;;;;17.20;45.87;101872.66;5090048;28;19948;-45
2022/05/16 08:01:45;;;;;;;;;;;;;;;17.24;45.85;101868.84;5090588;28;19919;-50
2022/05/16 08:04:12;;;;;;;;;;;;;;;17.30;45.84;101870.22;5089993;28;20346;-49
2022/05/16 08:06:37;;;;;;;;;;;;;;;17.34;45.71;101877.06;5092368;28;19928;-45
2022/05/16 08:11:46;;;;;;;;;;;;;;;17.47;45.53;101880.56;5092711;28;19918;-48
2022/05/16 08:14:12;;;;;;;;;;;;;;;17.52;45.42;101890.88;5089627;28;20002;-46
2022/05/16 08:16:38;;;;;;;;;;;;;;;17.52;45.40;101885.56;5088074;28;19915;-47
2022/05/16 08:19:04;;;;;;;;;;;;;;;17.53;45.47;101887.28;5089329;28;20039;-45
2022/05/16 08:21:29;;;;;;;;;;;;;;;17.57;45.29;101886.09;5089040;28;19927;-47
2022/05/16 08:23:54;;;;;;;;;;;;;;;17.63;45.36;101880.34;5089853;28;19920;-45
2022/05/16 08:26:20;;;;;;;;;;;;;;;17.67;45.26;101876.50;5090627;28;19928;-46
2022/05/16 08:28:45;;;;;;;;;;;;;;;17.72;45.23;101880.69;5088951;28;19912;-51
2022/05/16 08:31:10;;;;;;;;;;;;;;;17.75;45.20;101872.47;5090084;28;19970;-48
2022/05/16 08:33:37;;;;;;;;;;;;;;;17.80;45.07;101878.31;5085156;28;19917;-48
2022/05/16 08:41:33;;;;;;;;;;;;;;;17.92;44.97;101872.09;5088921;28;19942;-46
2022/05/16 08:44:03;;;;;;;;;;;;;;;17.95;44.74;101869.22;5086506;28;20005;-47
2022/05/16 08:46:35;;;;;;;;;;;;;;;18.00;44.69;101873.44;5092175;28;19986;-45
2022/05/16 08:49:18;;;;;;;;;;;;;;;18.05;44.73;101876.63;5086935;28;20383;-49
2022/05/16 08:51:47;;;;;;;;;;;;;;;18.10;44.86;101877.13;5091147;28;19913;-48
2022/05/16 08:54:20;;;;;;;;;;;;;;;18.14;44.48;101865.28;5088407;28;19922;-49
2022/05/16 08:56:46;;;;;;;;;;;;;;;18.17;44.61;101862.41;5089001;28;19919;-47
2022/05/16 08:59:11;;;;;;;;;;;;;;;18.24;44.54;101866.31;5088883;28;19912;-47
2022/05/16 09:01:40;;;;;;;;;;;;;;;18.31;44.34;101860.56;5088626;28;19977;-47
2022/05/16 09:04:08;;;;;;;;;;;;;;;18.38;44.31;101853.78;5089231;28;19950;-48
2022/05/16 09:06:47;;;;;;;;;;;;;;;18.40;43.91;101857.19;5090353;28;19916;-49
2022/05/16 09:09:17;;;;;;;;;;;;;;;18.42;43.99;101860.63;5090347;28;21197;-47
2022/05/16 09:11:52;;;;;;;;;;;;;;;18.46;44.03;101862.09;5091893;28;19957;-48
2022/05/16 09:14:31;;;;;;;;;;;;;;;18.52;44.00;101856.31;5090884;28;19915;-48
2022/05/16 09:17:01;;;;;;;;;;;;;;;18.57;43.98;101853.31;5084481;28;19960;-47
2022/05/16 09:19:45;;;;;;;;;;;;;;;18.62;43.87;101852.97;5085983;28;20553;-48
2022/05/16 09:22:17;;;;;;;;;;;;;;;18.65;43.83;101844.75;5089754;28;19917;-47
2022/05/16 09:24:49;;;;;;;;;;;;;;;18.67;43.57;101842.81;5090556;28;20007;-48
2022/05/16 09:30:27;;;;;;;;;;;;;;;18.76;43.58;101842.13;5090446;28;20001;-48
2022/05/16 09:33:13;;;;;;;;;;;;;;;18.81;43.38;101839.97;5094262;28;20027;-46
2022/05/16 09:35:58;;;;;;;;;;;;;;;18.87;43.37;101844.81;5090799;28;19913;-47
2022/05/16 09:38:23;;;;;;;;;;;;;;;18.90;42.97;101838.41;5090517;28;19916;-47
2022/05/16 09:40:58;;;;;;;;;;;;;;;18.94;43.01;101844.34;5090801;28;19924;-48
2022/05/16 09:43:24;;;;;;;;;;;;;;;19.00;43.26;101838.56;5092487;28;20405;-47
2022/05/16 09:45:53;;;;;;;;;;;;;;;19.05;43.23;101836.41;5093510;28;19961;-49
2022/05/16 09:48:21;;;;;;;;;;;;;;;19.09;43.11;101829.03;5091982;28;19916;-46
2022/05/16 09:50:57;;;;;;;;;;;;;;;19.14;42.86;101825.03;5093116;28;19927;-48
2022/05/16 09:53:28;;;;;;;;;;;;;;;19.21;43.06;101820.06;5091797;28;19924;-48
2022/05/16 09:55:55;;;;;;;;;;;;;;;19.30;42.79;101818.50;5092937;28;20303;-51
2022/05/16 09:58:31;;;;;;;;;;;;;;;19.39;42.29;101812.47;5092293;28;20306;-46
2022/05/16 10:00:59;;;;;;;;;;;;;;;19.46;42.22;101808.31;5092513;28;19912;-47
2022/05/16 10:03:24;;;;;;;;;;;;;;;19.50;42.41;101812.47;5096192;28;19986;-45
2022/05/16 10:05:51;;;;;;;;;;;;;;;19.57;42.13;101815.50;5093001;28;20387;-45
2022/05/16 10:08:39;;;;;;;;;;;;;;;19.65;42.21;101809.53;5087162;28;20398;-45
2022/05/16 10:11:11;;;;;;;;;;;;;;;19.74;41.94;101806.13;5083550;28;20394;-45
2022/05/16 10:13:38;;;;;;;;;;;;;;;19.80;42.10;101804.81;5083815;28;20023;-45
2022/05/16 10:16:05;;;;;;;;;;;;;;;19.84;42.03;101794.72;5092447;28;19913;-45
2022/05/16 10:18:40;;;;;;;;;;;;;;;19.85;41.74;101809.78;5086156;28;19938;-49
2022/05/16 10:21:09;;;;;;;;;;;;;;;19.88;41.80;101804.22;5090708;28;19961;-48
2022/05/16 10:23:36;;;;;;;;;;;;;;;19.87;41.36;101806.03;5092603;28;20288;-46
2022/05/16 10:26:04;;;;;;;;;;;;;;;19.89;41.68;101793.41;5090689;28;19912;-49
2022/05/16 10:28:35;;;;;;;;;;;;;;;19.93;41.59;101804.69;5089083;28;20609;-45
2022/05/16 10:33:49;;;;;;;;;;;;;;;19.96;41.65;101799.09;5065199;28;19916;-47
2022/05/16 10:36:23;;;;;;;;;;;;;;;20.00;41.30;101803.22;5094399;28;20406;-48
2022/05/16 10:38:54;;;;;;;;;;;;;;;20.07;41.11;101806.25;5091087;28;19920;-52
2022/05/16 10:41:25;;;;;;;;;;;;;;;20.10;41.29;101803.31;5091448;28;19982;-45
2022/05/16 10:44:00;;;;;;;;;;;;;;;20.13;41.12;101805.72;5090743;28;20028;-45
2022/05/16 10:46:27;;;;;;;;;;;;;;;20.14;41.22;101802.06;5093115;28;19920;-46
2022/05/16 10:48:52;;;;;;;;;;;;;;;20.20;40.56;101814.09;5091812;28;19995;-46
2022/05/16 10:51:40;;;;;;;;;;;;;;;20.21;41.02;101791.72;5091698;28;20276;-44
2022/05/16 10:54:11;;;;;;;;;;;;;;;20.23;40.72;101792.47;5091082;28;20299;-46
2022/05/16 10:56:54;;;;;;;;;;;;;;;20.28;40.95;101792.06;5091677;28;20075;-45
2022/05/16 10:59:32;;;;;;;;;;;;;;;20.31;40.84;101782.00;5095332;28;19916;-46
2022/05/16 11:02:16;;;;;;;;;;;;;;;20.34;40.83;101779.09;5090764;28;19928;-50
2022/05/16 11:05:00;;;;;;;;;;;;;;;20.39;40.42;101781.38;5088718;28;19926;-49
2022/05/16 11:07:43;;;;;;;;;;;;;;;20.40;40.51;101778.56;5091340;28;19981;-47
2022/05/16 11:10:08;;;;;;;;;;;;;;;20.45;40.48;101777.31;5088013;28;19918;-45
2022/05/16 11:12:34;;;;;;;;;;;;;;;20.50;40.60;101780.44;5092752;28;19912;-50
2022/05/16 11:15:02;;;;;;;;;;;;;;;20.54;40.41;101773.88;5092834;28;19934;-46
2022/05/16 11:17:50;;;;;;;;;;;;;;;20.59;40.39;101785.03;5091558;28;19927;-45
2022/05/16 11:20:23;;;;;;;;;;;;;;;20.65;40.21;101781.81;5091605;28;19923;-50
2022/05/16 11:22:55;;;;;;;;;;;;;;;20.69;40.27;101780.59;5086557;28;19922;-48
2022/05/16 11:25:27;;;;;;;;;;;;;;;20.69;39.86;101779.75;5090898;28;19920;-46
2022/05/16 11:27:58;;;;;;;;;;;;;;;20.70;40.11;101768.09;5085482;28;19922;-45
2022/05/16 11:30:34;;;;;;;;;;;;;;;20.79;39.58;101758.47;5094845;28;20267;-45
2022/05/16 11:33:08;;;;;;;;;;;;;;;20.87;39.84;101758.66;5092181;28;19958;-45
2022/05/16 11:35:36;;;;;;;;;;;;;;;20.92;39.92;101752.91;5089632;28;20002;-47
2022/05/16 11:38:04;;;;;;;;;;;;;;;21.00;39.77;101761.97;5076942;28;19917;-45
2022/05/16 11:40:56;;;;;;;;;;;;;;;21.08;39.55;101758.63;5085333;28;19920;-45
2022/05/16 11:43:21;;;;;;;;;;;;;;;21.17;39.45;101754.31;5082382;28;19923;-45
2022/05/16 11:46:05;;;;;;;;;;;;;;;21.22;39.23;101748.53;5086349;28;20561;-47
2022/05/16 11:48:30;;;;;;;;;;;;;;;21.27;39.47;101752.50;5080963;28;19978;-45
2022/05/16 11:51:11;;;;;;;;;;;;;;;21.31;39.64;101745.91;5093783;28;19916;-46
2022/05/16 11:53:36;;;;;;;;;;;;;;;21.37;38.52;101741.00;5092431;28;20314;-44
2022/05/16 12:01:35;;;;;;;;;;;;;;;21.44;38.77;101721.59;5088524;28;20440;-47
2022/05/16 12:04:10;;;;;;;;;;;;;;;21.49;38.92;101731.88;5082757;28;20406;-48
2022/05/16 12:06:37;;;;;;;;;;;;;;;21.55;38.64;101725.13;5085018;28;19955;-46
2022/05/16 12:09:23;;;;;;;;;;;;;;;21.60;38.89;101723.75;5088011;28;20007;-45
2022/05/16 12:12:00;;;;;;;;;;;;;;;21.69;38.70;101723.94;5087564;28;19967;-46
2022/05/16 12:14:35;;;;;;;;;;;;;;;21.74;38.19;101724.34;5088312;28;20340;-45
2022/05/16 12:17:06;;;;;;;;;;;;;;;21.76;38.50;101720.56;5085506;28;20023;-46
2022/05/16 12:19:31;;;;;;;;;;;;;;;21.80;38.69;101699.69;5087985;28;19923;-48
2022/05/16 12:21:59;;;;;;;;;;;;;;;21.86;38.47;101707.16;5087139;28;19916;-47
2022/05/16 12:24:27;;;;;;;;;;;;;;;21.93;38.46;101699.44;5078365;28;20302;-45
2022/05/16 12:26:58;;;;;;;;;;;;;;;21.99;38.12;101703.38;5086044;28;19925;-48
2022/05/16 12:29:29;;;;;;;;;;;;;;;22.05;38.19;101702.81;5087141;28;19916;-47
2022/05/16 12:31:54;;;;;;;;;;;;;;;22.11;38.13;101702.25;5090934;28;19973;-45
2022/05/16 12:34:29;;;;;;;;;;;;;;;22.17;38.25;101707.03;5093927;28;20511;-45
2022/05/16 12:36:55;;;;;;;;;;;;;;;22.20;37.75;101701.38;5084379;28;19916;-45
2022/05/16 12:39:28;;;;;;;;;;;;;;;22.22;38.05;101699.41;5093815;28;20365;-45
2022/05/16 12:42:11;;;;;;;;;;;;;;;22.26;37.85;101699.13;5085133;28;19927;-46
2022/05/16 12:44:42;;;;;;;;;;;;;;;22.34;37.88;101692.06;5092025;28;20957;-45
2022/05/16 12:47:07;;;;;;;;;;;;;;;22.42;37.85;101690.53;5086892;28;19920;-46
2022/05/16 12:49:46;;;;;;;;;;;;;;;22.52;37.95;101688.69;5091425;28;19912;-46
2022/05/16 12:52:32;;;;;;;;;;;;;;;22.61;37.84;101685.13;5088200;28;20264;-45
2022/05/16 12:55:15;;;;;;;;;;;;;;;22.66;37.60;101692.75;5068835;28;19920;-45
2022/05/16 12:57:50;;;;;;;;;;;;;;;22.72;37.48;101684.13;5092182;28;19973;-45
2022/05/16 13:00:21;;;;;;;;;;;;;;;22.75;37.03;101677.63;5088884;28;19925;-47
2022/05/16 13:02:52;;;;;;;;;;;;;;;22.78;37.06;101678.16;5092667;28;19916;-45
2022/05/16 13:05:32;;;;;;;;;;;;;;;22.84;36.50;101672.22;5095854;28;20469;-45
2022/05/16 13:08:13;;;;;;;;;;;;;;;22.93;37.15;101680.38;5096977;28;20322;-45
2022/05/16 13:10:39;;;;;;;;;;;;;;;23.04;36.79;101672.16;5091860;28;19923;-47
2022/05/16 13:13:09;;;;;;;;;;;;;;;23.14;36.62;101678.31;5096082;28;19916;-46
2022/05/16 13:15:37;;;;;;;;;;;;;;;23.25;36.80;101679.97;5094088;28;19939;-45
2022/05/16 13:18:08;;;;;;;;;;;;;;;23.32;36.55;101680.22;5098519;28;19911;-51
2022/05/16 13:20:35;;;;;;;;;;;;;;;23.41;36.50;101673.94;5088156;28;20264;-47